sensor_id;sensor_type;location;lat;lon;timestamp;pressure;altitude;pressure_sealevel;temperature;humidity
12897;BME280;6516;35.028;32.372;2022-07-23T00:00:50;99358.09;;;25.34;41.38
12897;BME280;6516;35.028;32.372;2022-07-23T00:03:18;99354.75;;;25.21;41.47
12897;BME280;6516;35.028;32.372;2022-07-23T00:05:46;99360.22;;;25.00;42.48
12897;BME280;6516;35.028;32.372;2022-07-23T00:08:13;99360.88;;;24.83;42.90
12897;BME280;6516;35.028;32.372;2022-07-23T00:10:41;99363.22;;;24.67;43.76
12897;BME280;6516;35.028;32.372;2022-07-23T00:13:10;99359.84;;;24.54;44.07
12897;BME280;6516;35.028;32.372;2022-07-23T00:15:39;99367.16;;;24.43;44.03
12897;BME280;6516;35.028;32.372;2022-07-23T00:18:07;99365.66;;;24.29;43.97
12897;BME280;6516;35.028;32.372;2022-07-23T00:20:35;99353.22;;;24.88;43.39
12897;BME280;6516;35.028;32.372;2022-07-23T00:23:02;99353.00;;;25.59;41.94
12897;BME280;6516;35.028;32.372;2022-07-23T00:25:31;99362.72;;;25.22;42.92
12897;BME280;6516;35.028;32.372;2022-07-23T00:28:00;99349.75;;;25.07;43.72
12897;BME280;6516;35.028;32.372;2022-07-23T00:30:30;99354.97;;;24.89;44.19
12897;BME280;6516;35.028;32.372;2022-07-23T00:33:01;99359.72;;;24.76;44.64
12897;BME280;6516;35.028;32.372;2022-07-23T00:35:31;99355.41;;;24.64;45.05
12897;BME280;6516;35.028;32.372;2022-07-23T00:38:00;99356.72;;;24.49;45.26
12897;BME280;6516;35.028;32.372;2022-07-23T00:40:30;99352.84;;;24.42;45.53
12897;BME280;6516;35.028;32.372;2022-07-23T00:42:58;99350.34;;;24.50;46.14
12897;BME280;6516;35.028;32.372;2022-07-23T00:45:27;99348.19;;;25.72;43.20
12897;BME280;6516;35.028;32.372;2022-07-23T00:47:55;99349.91;;;26.11;41.81
12897;BME280;6516;35.028;32.372;2022-07-23T00:50:24;99350.03;;;25.62;43.06
12897;BME280;6516;35.028;32.372;2022-07-23T00:52:52;99341.03;;;25.33;43.62
12897;BME280;6516;35.028;32.372;2022-07-23T00:55:20;99348.63;;;25.09;44.07
12897;BME280;6516;35.028;32.372;2022-07-23T00:57:50;99347.31;;;24.94;44.57
12897;BME280;6516;35.028;32.372;2022-07-23T01:00:19;99345.00;;;24.80;44.90
12897;BME280;6516;35.028;32.372;2022-07-23T01:02:47;99349.47;;;24.70;45.27
12897;BME280;6516;35.028;32.372;2022-07-23T01:05:15;99349.31;;;24.62;45.24
12897;BME280;6516;35.028;32.372;2022-07-23T01:07:45;99339.78;;;25.37;43.62
12897;BME280;6516;35.028;32.372;2022-07-23T01:10:13;99336.72;;;26.08;41.99
12897;BME280;6516;35.028;32.372;2022-07-23T01:13:01;99336.44;;;26.11;41.65
12897;BME280;6516;35.028;32.372;2022-07-23T01:15:31;99335.28;;;25.66;42.26
12897;BME280;6516;35.028;32.372;2022-07-23T01:18:00;99334.25;;;25.39;42.99
12897;BME280;6516;35.028;32.372;2022-07-23T01:20:29;99334.88;;;25.12;43.26
12897;BME280;6516;35.028;32.372;2022-07-23T01:22:58;99325.03;;;24.92;43.52
12897;BME280;6516;35.028;32.372;2022-07-23T01:25:26;99331.78;;;24.77;43.98
12897;BME280;6516;35.028;32.372;2022-07-23T01:27:54;99335.03;;;24.71;43.97
12897;BME280;6516;35.028;32.372;2022-07-23T01:30:22;99327.78;;;24.62;43.27
12897;BME280;6516;35.028;32.372;2022-07-23T01:32:50;99324.19;;;25.79;40.89
12897;BME280;6516;35.028;32.372;2022-07-23T01:35:19;99319.25;;;26.68;38.81
12897;BME280;6516;35.028;32.372;2022-07-23T01:37:47;99326.31;;;26.04;39.84
12897;BME280;6516;35.028;32.372;2022-07-23T01:40:16;99315.09;;;25.70;40.28
12897;BME280;6516;35.028;32.372;2022-07-23T01:42:44;99323.75;;;25.45;40.23
12897;BME280;6516;35.028;32.372;2022-07-23T01:45:12;99326.16;;;25.29;40.49
12897;BME280;6516;35.028;32.372;2022-07-23T01:47:40;99317.16;;;25.10;41.14
12897;BME280;6516;35.028;32.372;2022-07-23T01:50:09;99330.03;;;24.97;40.99
12897;BME280;6516;35.028;32.372;2022-07-23T01:52:36;99325.16;;;24.81;41.35
12897;BME280;6516;35.028;32.372;2022-07-23T01:55:06;99321.84;;;24.68;41.98
12897;BME280;6516;35.028;32.372;2022-07-23T01:57:37;99322.19;;;25.81;39.58
12897;BME280;6516;35.028;32.372;2022-07-23T02:00:05;99316.16;;;26.44;38.27
12897;BME280;6516;35.028;32.372;2022-07-23T02:02:34;99329.88;;;25.95;38.81
12897;BME280;6516;35.028;32.372;2022-07-23T02:05:02;99329.59;;;25.60;39.12
12897;BME280;6516;35.028;32.372;2022-07-23T02:07:30;99329.13;;;25.36;39.82
12897;BME280;6516;35.028;32.372;2022-07-23T02:09:58;99330.03;;;25.06;40.69
12897;BME280;6516;35.028;32.372;2022-07-23T02:12:25;99335.25;;;24.89;40.78
12897;BME280;6516;35.028;32.372;2022-07-23T02:14:55;99336.00;;;24.70;41.22
12897;BME280;6516;35.028;32.372;2022-07-23T02:17:23;99339.50;;;24.61;41.57
12897;BME280;6516;35.028;32.372;2022-07-23T02:19:50;99333.19;;;24.51;41.28
12897;BME280;6516;35.028;32.372;2022-07-23T02:22:18;99338.38;;;24.43;41.67
12897;BME280;6516;35.028;32.372;2022-07-23T02:24:46;99327.91;;;25.00;40.41
12897;BME280;6516;35.028;32.372;2022-07-23T02:27:15;99333.69;;;25.35;39.54
12897;BME280;6516;35.028;32.372;2022-07-23T02:29:43;99333.72;;;24.96;40.21
12897;BME280;6516;35.028;32.372;2022-07-23T02:32:13;99339.44;;;24.82;40.63
12897;BME280;6516;35.028;32.372;2022-07-23T02:34:41;99343.19;;;24.60;41.03
12897;BME280;6516;35.028;32.372;2022-07-23T02:37:09;99345.94;;;24.49;41.16
12897;BME280;6516;35.028;32.372;2022-07-23T02:39:38;99342.38;;;24.39;40.82
12897;BME280;6516;35.028;32.372;2022-07-23T02:42:07;99336.13;;;24.39;40.64
12897;BME280;6516;35.028;32.372;2022-07-23T02:44:35;99340.13;;;24.44;40.17
12897;BME280;6516;35.028;32.372;2022-07-23T02:47:03;99330.16;;;24.95;39.57
12897;BME280;6516;35.028;32.372;2022-07-23T02:49:32;99331.84;;;25.83;38.14
12897;BME280;6516;35.028;32.372;2022-07-23T02:52:00;99332.00;;;25.91;37.48
12897;BME280;6516;35.028;32.372;2022-07-23T02:54:28;99331.84;;;25.64;38.02
12897;BME280;6516;35.028;32.372;2022-07-23T02:56:56;99335.94;;;25.40;38.34
12897;BME280;6516;35.028;32.372;2022-07-23T02:59:24;99328.38;;;25.15;38.89
12897;BME280;6516;35.028;32.372;2022-07-23T03:01:52;99325.47;;;24.97;39.53
12897;BME280;6516;35.028;32.372;2022-07-23T03:04:20;99323.28;;;24.82;39.87
12897;BME280;6516;35.028;32.372;2022-07-23T03:06:50;99325.97;;;24.72;40.00
12897;BME280;6516;35.028;32.372;2022-07-23T03:09:17;99317.97;;;25.69;37.66
12897;BME280;6516;35.028;32.372;2022-07-23T03:11:45;99316.19;;;26.34;36.51
12897;BME280;6516;35.028;32.372;2022-07-23T03:14:13;99322.78;;;26.03;37.02
12897;BME280;6516;35.028;32.372;2022-07-23T03:16:42;99320.22;;;25.83;37.38
12897;BME280;6516;35.028;32.372;2022-07-23T03:19:10;99321.06;;;25.64;37.70
12897;BME280;6516;35.028;32.372;2022-07-23T03:21:37;99323.78;;;25.55;37.85
12897;BME280;6516;35.028;32.372;2022-07-23T03:24:08;99319.38;;;25.44;37.97
12897;BME280;6516;35.028;32.372;2022-07-23T03:26:36;99327.03;;;25.39;38.31
12897;BME280;6516;35.028;32.372;2022-07-23T03:29:05;99316.78;;;25.33;38.52
12897;BME280;6516;35.028;32.372;2022-07-23T03:31:33;99322.34;;;25.60;38.43
12897;BME280;6516;35.028;32.372;2022-07-23T03:34:01;99312.22;;;26.75;36.08
12897;BME280;6516;35.028;32.372;2022-07-23T03:36:29;99316.41;;;27.24;35.14
12897;BME280;6516;35.028;32.372;2022-07-23T03:38:57;99317.78;;;26.73;36.31
12897;BME280;6516;35.028;32.372;2022-07-23T03:41:26;99320.81;;;26.51;36.80
12897;BME280;6516;35.028;32.372;2022-07-23T03:43:54;99317.28;;;26.41;37.08
12897;BME280;6516;35.028;32.372;2022-07-23T03:46:22;99320.19;;;26.30;37.37
12897;BME280;6516;35.028;32.372;2022-07-23T03:48:51;99325.00;;;26.27;37.57
12897;BME280;6516;35.028;32.372;2022-07-23T03:51:19;99317.06;;;26.25;37.41
12897;BME280;6516;35.028;32.372;2022-07-23T03:53:47;99321.34;;;26.28;37.78
12897;BME280;6516;35.028;32.372;2022-07-23T03:56:15;99325.28;;;26.33;37.61
12897;BME280;6516;35.028;32.372;2022-07-23T03:58:44;99325.25;;;26.43;37.31
12897;BME280;6516;35.028;32.372;2022-07-23T04:01:12;99324.50;;;26.50;37.62
12897;BME280;6516;35.028;32.372;2022-07-23T04:03:40;99330.06;;;26.58;37.81
12897;BME280;6516;35.028;32.372;2022-07-23T04:06:08;99329.19;;;26.67;37.71
12897;BME280;6516;35.028;32.372;2022-07-23T04:08:36;99326.69;;;26.83;37.33
12897;BME280;6516;35.028;32.372;2022-07-23T04:11:03;99333.59;;;26.95;36.88
12897;BME280;6516;35.028;32.372;2022-07-23T04:13:32;99335.81;;;27.09;37.08
12897;BME280;6516;35.028;32.372;2022-07-23T04:16:01;99337.00;;;27.25;36.80
12897;BME280;6516;35.028;32.372;2022-07-23T04:18:29;99336.19;;;27.42;36.51
12897;BME280;6516;35.028;32.372;2022-07-23T04:20:57;99340.78;;;27.59;36.18
12897;BME280;6516;35.028;32.372;2022-07-23T04:23:25;99336.38;;;27.75;36.16
12897;BME280;6516;35.028;32.372;2022-07-23T04:25:53;99342.34;;;27.96;35.38
12897;BME280;6516;35.028;32.372;2022-07-23T04:28:21;99340.47;;;28.14;33.94
12897;BME280;6516;35.028;32.372;2022-07-23T04:30:49;99339.97;;;28.36;33.16
12897;BME280;6516;35.028;32.372;2022-07-23T04:33:19;99340.81;;;28.62;31.98
12897;BME280;6516;35.028;32.372;2022-07-23T04:35:47;99333.69;;;28.87;31.39
12897;BME280;6516;35.028;32.372;2022-07-23T04:38:15;99334.66;;;29.11;31.50
12897;BME280;6516;35.028;32.372;2022-07-23T04:40:43;99338.97;;;29.38;30.96
12897;BME280;6516;35.028;32.372;2022-07-23T04:43:10;99333.69;;;29.70;30.81
12897;BME280;6516;35.028;32.372;2022-07-23T04:45:38;99333.38;;;30.21;30.26
12897;BME280;6516;35.028;32.372;2022-07-23T04:48:06;99329.78;;;30.68;29.98
12897;BME280;6516;35.028;32.372;2022-07-23T04:50:36;99328.28;;;31.04;29.86
12897;BME280;6516;35.028;32.372;2022-07-23T04:53:04;99339.03;;;31.36;29.03
12897;BME280;6516;35.028;32.372;2022-07-23T04:55:32;99330.13;;;31.73;27.99
12897;BME280;6516;35.028;32.372;2022-07-23T04:57:59;99336.91;;;32.22;27.21
12897;BME280;6516;35.028;32.372;2022-07-23T05:00:27;99346.84;;;32.89;26.91
12897;BME280;6516;35.028;32.372;2022-07-23T05:02:55;99331.94;;;33.70;26.52
12897;BME280;6516;35.028;32.372;2022-07-23T05:05:23;99333.47;;;34.36;25.69
12897;BME280;6516;35.028;32.372;2022-07-23T05:07:52;99328.06;;;35.04;24.63
12897;BME280;6516;35.028;32.372;2022-07-23T05:10:21;99333.00;;;35.62;23.80
12897;BME280;6516;35.028;32.372;2022-07-23T05:12:49;99333.59;;;36.31;23.95
12897;BME280;6516;35.028;32.372;2022-07-23T05:15:17;99328.09;;;36.50;22.82
12897;BME280;6516;35.028;32.372;2022-07-23T05:17:45;99327.41;;;37.00;23.27
12897;BME280;6516;35.028;32.372;2022-07-23T05:20:13;99333.09;;;37.18;21.79
12897;BME280;6516;35.028;32.372;2022-07-23T05:22:41;99332.94;;;37.57;21.37
12897;BME280;6516;35.028;32.372;2022-07-23T05:25:11;99328.97;;;37.84;21.12
12897;BME280;6516;35.028;32.372;2022-07-23T05:27:39;99333.09;;;38.06;20.99
12897;BME280;6516;35.028;32.372;2022-07-23T05:30:07;99331.97;;;38.14;21.35
12897;BME280;6516;35.028;32.372;2022-07-23T05:32:36;99331.44;;;38.30;21.40
12897;BME280;6516;35.028;32.372;2022-07-23T05:35:05;99331.22;;;38.31;22.18
12897;BME280;6516;35.028;32.372;2022-07-23T05:37:33;99338.81;;;38.29;22.97
12897;BME280;6516;35.028;32.372;2022-07-23T05:40:02;99340.59;;;38.17;23.33
12897;BME280;6516;35.028;32.372;2022-07-23T05:42:33;99335.63;;;38.08;24.63
12897;BME280;6516;35.028;32.372;2022-07-23T05:45:02;99335.56;;;38.14;24.54
12897;BME280;6516;35.028;32.372;2022-07-23T05:47:39;99331.63;;;37.97;23.99
12897;BME280;6516;35.028;32.372;2022-07-23T05:50:11;99329.69;;;38.11;24.24
12897;BME280;6516;35.028;32.372;2022-07-23T05:52:40;99329.56;;;37.93;22.07
12897;BME280;6516;35.028;32.372;2022-07-23T05:55:09;99334.69;;;37.83;23.14
12897;BME280;6516;35.028;32.372;2022-07-23T05:57:39;99340.06;;;37.65;23.60
12897;BME280;6516;35.028;32.372;2022-07-23T06:00:09;99338.44;;;37.44;23.87
12897;BME280;6516;35.028;32.372;2022-07-23T06:02:38;99335.16;;;37.29;25.40
12897;BME280;6516;35.028;32.372;2022-07-23T06:05:07;99326.53;;;37.19;23.12
12897;BME280;6516;35.028;32.372;2022-07-23T06:07:36;99332.66;;;37.08;22.04
12897;BME280;6516;35.028;32.372;2022-07-23T06:10:04;99342.81;;;37.08;24.71
12897;BME280;6516;35.028;32.372;2022-07-23T06:12:32;99334.75;;;37.19;24.02
12897;BME280;6516;35.028;32.372;2022-07-23T06:15:02;99334.34;;;37.22;24.83
12897;BME280;6516;35.028;32.372;2022-07-23T06:17:30;99341.31;;;37.25;26.22
12897;BME280;6516;35.028;32.372;2022-07-23T06:19:58;99333.22;;;37.36;26.09
12897;BME280;6516;35.028;32.372;2022-07-23T06:22:26;99327.44;;;37.57;28.66
12897;BME280;6516;35.028;32.372;2022-07-23T06:24:54;99331.78;;;37.71;28.80
12897;BME280;6516;35.028;32.372;2022-07-23T06:27:22;99341.59;;;37.92;28.96
12897;BME280;6516;35.028;32.372;2022-07-23T06:29:50;99336.91;;;38.05;29.07
12897;BME280;6516;35.028;32.372;2022-07-23T06:32:20;99343.00;;;38.38;28.59
12897;BME280;6516;35.028;32.372;2022-07-23T06:34:48;99332.22;;;38.61;28.41
12897;BME280;6516;35.028;32.372;2022-07-23T06:37:16;99336.22;;;38.65;29.62
12897;BME280;6516;35.028;32.372;2022-07-23T06:39:44;99333.91;;;38.62;31.43
12897;BME280;6516;35.028;32.372;2022-07-23T06:42:11;99331.19;;;38.80;31.57
12897;BME280;6516;35.028;32.372;2022-07-23T06:44:40;99329.50;;;38.79;32.08
12897;BME280;6516;35.028;32.372;2022-07-23T06:47:08;99341.06;;;38.70;33.63
12897;BME280;6516;35.028;32.372;2022-07-23T06:49:37;99345.91;;;38.43;34.25
12897;BME280;6516;35.028;32.372;2022-07-23T06:52:06;99341.84;;;38.21;34.26
12897;BME280;6516;35.028;32.372;2022-07-23T06:54:34;99327.19;;;38.03;35.98
12897;BME280;6516;35.028;32.372;2022-07-23T06:57:03;99340.94;;;38.03;34.75
12897;BME280;6516;35.028;32.372;2022-07-23T06:59:30;99336.44;;;38.08;33.87
12897;BME280;6516;35.028;32.372;2022-07-23T07:01:58;99341.13;;;38.08;31.43
12897;BME280;6516;35.028;32.372;2022-07-23T07:04:26;99338.97;;;38.10;33.50
12897;BME280;6516;35.028;32.372;2022-07-23T07:06:56;99341.84;;;38.21;32.40
12897;BME280;6516;35.028;32.372;2022-07-23T07:09:24;99336.59;;;38.20;32.85
12897;BME280;6516;35.028;32.372;2022-07-23T07:11:52;99346.81;;;38.37;32.22
12897;BME280;6516;35.028;32.372;2022-07-23T07:14:20;99339.84;;;38.35;33.50
12897;BME280;6516;35.028;32.372;2022-07-23T07:16:48;99340.75;;;38.53;31.91
12897;BME280;6516;35.028;32.372;2022-07-23T07:19:16;99338.75;;;38.67;30.16
12897;BME280;6516;35.028;32.372;2022-07-23T07:21:44;99337.09;;;38.84;30.52
12897;BME280;6516;35.028;32.372;2022-07-23T07:24:13;99332.72;;;38.76;32.91
12897;BME280;6516;35.028;32.372;2022-07-23T07:26:42;99340.78;;;38.96;31.50
12897;BME280;6516;35.028;32.372;2022-07-23T07:29:10;99343.78;;;39.12;31.24
12897;BME280;6516;35.028;32.372;2022-07-23T07:31:38;99337.00;;;38.97;31.04
12897;BME280;6516;35.028;32.372;2022-07-23T07:34:06;99339.56;;;39.10;32.78
12897;BME280;6516;35.028;32.372;2022-07-23T07:36:34;99347.09;;;39.03;34.18
12897;BME280;6516;35.028;32.372;2022-07-23T07:39:03;99339.13;;;39.13;34.95
12897;BME280;6516;35.028;32.372;2022-07-23T07:41:32;99339.56;;;39.10;32.97
12897;BME280;6516;35.028;32.372;2022-07-23T07:44:00;99333.69;;;39.24;32.52
12897;BME280;6516;35.028;32.372;2022-07-23T07:46:28;99331.06;;;39.29;30.85
12897;BME280;6516;35.028;32.372;2022-07-23T07:48:56;99331.56;;;39.26;31.44
12897;BME280;6516;35.028;32.372;2022-07-23T07:51:24;99337.22;;;39.49;29.16
12897;BME280;6516;35.028;32.372;2022-07-23T07:53:52;99342.53;;;39.62;30.18
12897;BME280;6516;35.028;32.372;2022-07-23T07:56:19;99344.38;;;39.87;29.95
12897;BME280;6516;35.028;32.372;2022-07-23T07:58:49;99342.94;;;39.84;28.20
12897;BME280;6516;35.028;32.372;2022-07-23T08:01:16;99340.34;;;40.01;27.62
12897;BME280;6516;35.028;32.372;2022-07-23T08:03:45;99339.69;;;40.17;25.74
12897;BME280;6516;35.028;32.372;2022-07-23T08:06:13;99342.63;;;40.33;24.80
12897;BME280;6516;35.028;32.372;2022-07-23T08:08:42;99342.03;;;40.43;23.75
12897;BME280;6516;35.028;32.372;2022-07-23T08:11:09;99333.91;;;40.59;21.20
12897;BME280;6516;35.028;32.372;2022-07-23T08:13:37;99336.44;;;40.61;24.94
12897;BME280;6516;35.028;32.372;2022-07-23T08:16:08;99329.94;;;40.67;26.38
12897;BME280;6516;35.028;32.372;2022-07-23T08:18:36;99331.00;;;40.89;25.62
12897;BME280;6516;35.028;32.372;2022-07-23T08:21:04;99329.81;;;41.08;23.24
12897;BME280;6516;35.028;32.372;2022-07-23T08:23:33;99329.22;;;41.06;25.03
12897;BME280;6516;35.028;32.372;2022-07-23T08:26:01;99329.44;;;41.16;24.04
12897;BME280;6516;35.028;32.372;2022-07-23T08:28:29;99327.75;;;41.26;23.73
12897;BME280;6516;35.028;32.372;2022-07-23T08:30:59;99325.59;;;41.17;24.35
12897;BME280;6516;35.028;32.372;2022-07-23T08:33:28;99322.56;;;41.30;21.99
12897;BME280;6516;35.028;32.372;2022-07-23T08:35:56;99317.19;;;41.12;22.98
12897;BME280;6516;35.028;32.372;2022-07-23T08:38:24;99326.66;;;41.27;24.22
12897;BME280;6516;35.028;32.372;2022-07-23T08:40:56;99314.66;;;41.33;22.97
12897;BME280;6516;35.028;32.372;2022-07-23T08:43:25;99310.28;;;41.37;23.81
12897;BME280;6516;35.028;32.372;2022-07-23T08:45:55;99306.81;;;41.42;22.86
12897;BME280;6516;35.028;32.372;2022-07-23T08:48:25;99308.50;;;41.43;20.89
12897;BME280;6516;35.028;32.372;2022-07-23T08:50:57;99304.63;;;41.44;19.85
12897;BME280;6516;35.028;32.372;2022-07-23T08:53:27;99307.41;;;41.44;20.38
12897;BME280;6516;35.028;32.372;2022-07-23T08:55:57;99302.00;;;41.49;19.62
12897;BME280;6516;35.028;32.372;2022-07-23T08:58:27;99298.47;;;41.53;20.53
12897;BME280;6516;35.028;32.372;2022-07-23T09:00:56;99306.25;;;41.68;20.36
12897;BME280;6516;35.028;32.372;2022-07-23T09:03:26;99308.75;;;41.81;22.43
12897;BME280;6516;35.028;32.372;2022-07-23T09:05:58;99312.97;;;41.72;19.66
12897;BME280;6516;35.028;32.372;2022-07-23T09:08:35;99305.72;;;41.43;22.22
12897;BME280;6516;35.028;32.372;2022-07-23T09:11:04;99299.19;;;41.60;20.34
12897;BME280;6516;35.028;32.372;2022-07-23T09:13:36;99309.88;;;41.57;19.84
12897;BME280;6516;35.028;32.372;2022-07-23T09:16:09;99304.88;;;41.54;17.59
12897;BME280;6516;35.028;32.372;2022-07-23T09:18:43;99303.38;;;41.63;18.83
12897;BME280;6516;35.028;32.372;2022-07-23T09:21:15;99300.06;;;41.77;17.74
12897;BME280;6516;35.028;32.372;2022-07-23T09:23:46;99301.16;;;41.76;18.38
12897;BME280;6516;35.028;32.372;2022-07-23T09:26:22;99303.38;;;41.63;17.02
12897;BME280;6516;35.028;32.372;2022-07-23T09:28:59;99303.97;;;41.65;18.53
12897;BME280;6516;35.028;32.372;2022-07-23T09:31:34;99292.41;;;41.68;17.84
12897;BME280;6516;35.028;32.372;2022-07-23T09:34:13;99293.56;;;41.83;18.98
12897;BME280;6516;35.028;32.372;2022-07-23T09:36:42;99301.13;;;41.88;18.38
12897;BME280;6516;35.028;32.372;2022-07-23T09:39:11;99299.69;;;41.85;17.40
12897;BME280;6516;35.028;32.372;2022-07-23T09:41:42;99300.28;;;41.87;17.66
12897;BME280;6516;35.028;32.372;2022-07-23T09:44:14;99302.78;;;41.61;18.96
12897;BME280;6516;35.028;32.372;2022-07-23T09:46:44;99296.94;;;41.74;18.95
12897;BME280;6516;35.028;32.372;2022-07-23T09:49:17;99296.97;;;41.46;19.61
12897;BME280;6516;35.028;32.372;2022-07-23T09:51:54;99294.47;;;41.61;19.06
12897;BME280;6516;35.028;32.372;2022-07-23T09:54:26;99295.19;;;41.68;19.92
12897;BME280;6516;35.028;32.372;2022-07-23T09:56:57;99294.00;;;41.64;19.79
12897;BME280;6516;35.028;32.372;2022-07-23T09:59:31;99298.88;;;41.45;19.27
12897;BME280;6516;35.028;32.372;2022-07-23T10:02:00;99294.53;;;41.38;19.04
12897;BME280;6516;35.028;32.372;2022-07-23T10:04:30;99302.16;;;41.42;20.25
12897;BME280;6516;35.028;32.372;2022-07-23T10:06:59;99294.34;;;41.28;19.38
12897;BME280;6516;35.028;32.372;2022-07-23T10:09:30;99300.34;;;41.25;19.96
12897;BME280;6516;35.028;32.372;2022-07-23T10:12:01;99284.94;;;41.29;20.52
12897;BME280;6516;35.028;32.372;2022-07-23T10:14:36;99291.44;;;41.46;21.18
12897;BME280;6516;35.028;32.372;2022-07-23T10:17:04;99290.34;;;41.47;21.79
12897;BME280;6516;35.028;32.372;2022-07-23T10:19:34;99282.59;;;41.60;20.78
12897;BME280;6516;35.028;32.372;2022-07-23T10:22:04;99292.50;;;41.73;20.18
12897;BME280;6516;35.028;32.372;2022-07-23T10:24:45;99282.38;;;41.39;20.85
12897;BME280;6516;35.028;32.372;2022-07-23T10:28:04;99283.91;;;41.18;20.98
12897;BME280;6516;35.028;32.372;2022-07-23T10:30:43;99281.09;;;41.30;21.10
12897;BME280;6516;35.028;32.372;2022-07-23T10:33:24;99277.75;;;41.28;21.81
12897;BME280;6516;35.028;32.372;2022-07-23T10:36:05;99276.16;;;41.43;21.82
12897;BME280;6516;35.028;32.372;2022-07-23T10:38:43;99273.50;;;41.48;23.00
12897;BME280;6516;35.028;32.372;2022-07-23T10:41:31;99279.88;;;41.49;21.65
12897;BME280;6516;35.028;32.372;2022-07-23T10:44:06;99277.13;;;41.49;22.30
12897;BME280;6516;35.028;32.372;2022-07-23T10:46:56;99275.41;;;41.48;21.91
12897;BME280;6516;35.028;32.372;2022-07-23T10:49:43;99272.66;;;41.48;22.26
12897;BME280;6516;35.028;32.372;2022-07-23T10:52:33;99263.84;;;41.79;21.91
12897;BME280;6516;35.028;32.372;2022-07-23T10:58:19;99271.53;;;41.60;21.98
12897;BME280;6516;35.028;32.372;2022-07-23T11:00:50;99272.53;;;41.71;21.03
12897;BME280;6516;35.028;32.372;2022-07-23T11:03:29;99272.97;;;41.63;20.36
12897;BME280;6516;35.028;32.372;2022-07-23T11:06:01;99272.78;;;41.41;20.22
12897;BME280;6516;35.028;32.372;2022-07-23T11:08:31;99276.94;;;41.55;20.62
12897;BME280;6516;35.028;32.372;2022-07-23T11:11:10;99270.41;;;41.45;21.10
12897;BME280;6516;35.028;32.372;2022-07-23T11:13:46;99267.34;;;41.58;19.88
12897;BME280;6516;35.028;32.372;2022-07-23T11:16:22;99266.91;;;41.66;19.96
12897;BME280;6516;35.028;32.372;2022-07-23T11:19:04;99261.31;;;41.77;19.59
12897;BME280;6516;35.028;32.372;2022-07-23T11:21:48;99264.03;;;41.89;18.76
12897;BME280;6516;35.028;32.372;2022-07-23T11:24:23;99262.91;;;42.01;18.42
12897;BME280;6516;35.028;32.372;2022-07-23T11:27:00;99261.66;;;42.09;18.92
12897;BME280;6516;35.028;32.372;2022-07-23T11:29:52;99251.16;;;42.11;17.95
12897;BME280;6516;35.028;32.372;2022-07-23T11:32:39;99258.28;;;42.07;18.28
12897;BME280;6516;35.028;32.372;2022-07-23T11:35:25;99249.31;;;42.00;18.64
12897;BME280;6516;35.028;32.372;2022-07-23T11:37:56;99244.34;;;42.02;18.56
12897;BME280;6516;35.028;32.372;2022-07-23T11:40:33;99242.47;;;41.74;19.47
12897;BME280;6516;35.028;32.372;2022-07-23T11:43:02;99243.00;;;41.88;19.39
12897;BME280;6516;35.028;32.372;2022-07-23T11:45:33;99241.34;;;41.87;18.89
12897;BME280;6516;35.028;32.372;2022-07-23T11:48:03;99239.56;;;41.81;19.37
12897;BME280;6516;35.028;32.372;2022-07-23T11:50:33;99240.59;;;41.80;21.01
12897;BME280;6516;35.028;32.372;2022-07-23T11:53:01;99237.97;;;41.85;20.52
12897;BME280;6516;35.028;32.372;2022-07-23T11:55:29;99245.31;;;41.63;20.16
12897;BME280;6516;35.028;32.372;2022-07-23T11:57:59;99239.84;;;41.68;20.25
12897;BME280;6516;35.028;32.372;2022-07-23T12:00:28;99242.63;;;41.68;22.84
12897;BME280;6516;35.028;32.372;2022-07-23T12:02:58;99238.75;;;41.69;23.52
12897;BME280;6516;35.028;32.372;2022-07-23T12:05:29;99230.13;;;41.65;23.33
12897;BME280;6516;35.028;32.372;2022-07-23T12:07:59;99241.34;;;41.59;22.47
12897;BME280;6516;35.028;32.372;2022-07-23T12:10:29;99244.16;;;41.47;21.61
12897;BME280;6516;35.028;32.372;2022-07-23T12:13:01;99240.16;;;41.55;21.35
12897;BME280;6516;35.028;32.372;2022-07-23T12:15:33;99236.69;;;41.48;21.57
12897;BME280;6516;35.028;32.372;2022-07-23T12:18:05;99230.25;;;41.42;21.04
12897;BME280;6516;35.028;32.372;2022-07-23T12:20:36;99224.06;;;41.52;20.39
12897;BME280;6516;35.028;32.372;2022-07-23T12:23:06;99226.25;;;41.50;20.65
12897;BME280;6516;35.028;32.372;2022-07-23T12:25:36;99229.88;;;41.67;20.50
12897;BME280;6516;35.028;32.372;2022-07-23T12:28:07;99227.66;;;41.52;21.78
12897;BME280;6516;35.028;32.372;2022-07-23T12:30:38;99227.44;;;41.54;21.71
12897;BME280;6516;35.028;32.372;2022-07-23T12:33:09;99224.00;;;41.35;20.58
12897;BME280;6516;35.028;32.372;2022-07-23T12:35:39;99221.03;;;41.25;21.34
12897;BME280;6516;35.028;32.372;2022-07-23T12:38:10;99222.03;;;41.08;21.32
12897;BME280;6516;35.028;32.372;2022-07-23T12:40:43;99216.50;;;41.08;20.94
12897;BME280;6516;35.028;32.372;2022-07-23T12:43:20;99215.97;;;40.83;20.75
12897;BME280;6516;35.028;32.372;2022-07-23T12:45:50;99213.91;;;40.90;21.25
12897;BME280;6516;35.028;32.372;2022-07-23T12:48:22;99210.88;;;40.91;20.50
12897;BME280;6516;35.028;32.372;2022-07-23T12:50:56;99211.63;;;40.87;20.10
12897;BME280;6516;35.028;32.372;2022-07-23T12:53:27;99203.69;;;40.90;19.51
12897;BME280;6516;35.028;32.372;2022-07-23T12:56:03;99201.88;;;40.96;19.18
12897;BME280;6516;35.028;32.372;2022-07-23T12:58:45;99200.09;;;40.90;19.69
12897;BME280;6516;35.028;32.372;2022-07-23T13:01:28;99201.78;;;40.91;20.40
12897;BME280;6516;35.028;32.372;2022-07-23T13:03:59;99204.53;;;40.91;19.46
12897;BME280;6516;35.028;32.372;2022-07-23T13:06:29;99193.25;;;40.92;19.34
12897;BME280;6516;35.028;32.372;2022-07-23T13:09:01;99193.56;;;40.68;19.27
12897;BME280;6516;35.028;32.372;2022-07-23T13:11:30;99199.97;;;40.85;19.61
12897;BME280;6516;35.028;32.372;2022-07-23T13:14:01;99187.34;;;40.89;20.18
12897;BME280;6516;35.028;32.372;2022-07-23T13:16:31;99199.84;;;40.91;19.69
12897;BME280;6516;35.028;32.372;2022-07-23T13:19:00;99192.16;;;40.93;20.65